Edmonton Stony Plain Alta., Canada
Current Conditions -  °F | °C
As of 8:00 PM on Thursday 30 Oct 2014 (Local Time) from CWSE Reporting Station
Overcast Overcast  
Wind Chill: 25°   Ceiling: 1000
Heat Index: 34°   Visibility: 10mi
Dew Point: 33°   Wind: 14mph
Humidity: 94%   Direction: 130°SE
Pressure: 29.93"   Gusts: 22mph
Location:  53.53°N, 114.1°W
Report Text: CWSE 310200Z 13012G19KT 10SM OVC010 01/00 A2993 RMK SLP170 LAST OBS/NEXT 311100 UTC T00130004 WSI/SWOB
Loading
Personal Weather Stations






























Interactive Weather Map
Tropical Storm Tracking
New forecast layout! Learn more

10-Day Weather Forecast

Advertisements
Track Severe Weather on mobile